sensor_id;sensor_type;location;lat;lon;timestamp;temperature;humidity
30047;DHT22;16878;52.542;13.426;2023-02-28T00:00:22;2.20;99.90
30047;DHT22;16878;52.542;13.426;2023-02-28T00:02:48;2.20;99.90
30047;DHT22;16878;52.542;13.426;2023-02-28T00:05:17;2.20;99.90
30047;DHT22;16878;52.542;13.426;2023-02-28T00:07:44;2.20;99.90
30047;DHT22;16878;52.542;13.426;2023-02-28T00:10:15;2.30;99.90
30047;DHT22;16878;52.542;13.426;2023-02-28T00:12:41;2.30;99.90
30047;DHT22;16878;52.542;13.426;2023-02-28T00:15:09;2.30;99.90
30047;DHT22;16878;52.542;13.426;2023-02-28T00:17:35;2.30;99.90
30047;DHT22;16878;52.542;13.426;2023-02-28T00:20:01;2.30;99.90
30047;DHT22;16878;52.542;13.426;2023-02-28T00:22:27;2.30;99.90
30047;DHT22;16878;52.542;13.426;2023-02-28T00:24:53;2.20;99.90
30047;DHT22;16878;52.542;13.426;2023-02-28T00:27:18;2.20;99.90
30047;DHT22;16878;52.542;13.426;2023-02-28T00:29:48;2.30;99.90
30047;DHT22;16878;52.542;13.426;2023-02-28T00:32:14;2.30;99.90
30047;DHT22;16878;52.542;13.426;2023-02-28T00:34:40;2.30;99.90
30047;DHT22;16878;52.542;13.426;2023-02-28T00:37:06;2.40;99.90
30047;DHT22;16878;52.542;13.426;2023-02-28T00:39:36;2.40;99.90
30047;DHT22;16878;52.542;13.426;2023-02-28T00:42:03;2.40;99.90
30047;DHT22;16878;52.542;13.426;2023-02-28T00:44:29;2.30;99.90
30047;DHT22;16878;52.542;13.426;2023-02-28T00:46:55;2.40;99.90
30047;DHT22;16878;52.542;13.426;2023-02-28T00:49:22;2.40;99.90
30047;DHT22;16878;52.542;13.426;2023-02-28T00:51:48;2.30;99.90
30047;DHT22;16878;52.542;13.426;2023-02-28T00:54:14;2.30;99.90
30047;DHT22;16878;52.542;13.426;2023-02-28T00:56:40;2.30;99.90
30047;DHT22;16878;52.542;13.426;2023-02-28T00:59:05;2.30;99.90
30047;DHT22;16878;52.542;13.426;2023-02-28T01:01:31;2.30;99.90
30047;DHT22;16878;52.542;13.426;2023-02-28T01:03:57;2.30;99.90
30047;DHT22;16878;52.542;13.426;2023-02-28T01:06:23;2.30;99.90
30047;DHT22;16878;52.542;13.426;2023-02-28T01:08:49;2.30;99.90
30047;DHT22;16878;52.542;13.426;2023-02-28T01:11:16;2.30;99.90
30047;DHT22;16878;52.542;13.426;2023-02-28T01:13:43;2.20;99.90
30047;DHT22;16878;52.542;13.426;2023-02-28T01:16:09;2.10;99.90
30047;DHT22;16878;52.542;13.426;2023-02-28T01:18:35;2.00;99.90
30047;DHT22;16878;52.542;13.426;2023-02-28T01:21:06;1.90;99.90
30047;DHT22;16878;52.542;13.426;2023-02-28T01:23:32;1.90;99.90
30047;DHT22;16878;52.542;13.426;2023-02-28T01:26:04;1.90;99.90
30047;DHT22;16878;52.542;13.426;2023-02-28T01:28:30;1.90;99.90
30047;DHT22;16878;52.542;13.426;2023-02-28T01:30:55;1.90;99.90
30047;DHT22;16878;52.542;13.426;2023-02-28T01:33:21;1.90;99.90
30047;DHT22;16878;52.542;13.426;2023-02-28T01:35:47;2.00;99.90
30047;DHT22;16878;52.542;13.426;2023-02-28T01:38:12;2.00;99.90
30047;DHT22;16878;52.542;13.426;2023-02-28T01:40:38;2.10;99.90
30047;DHT22;16878;52.542;13.426;2023-02-28T01:43:21;2.00;99.90
30047;DHT22;16878;52.542;13.426;2023-02-28T01:45:47;2.00;99.90
30047;DHT22;16878;52.542;13.426;2023-02-28T01:48:12;2.00;99.90
30047;DHT22;16878;52.542;13.426;2023-02-28T01:50:43;1.90;99.90
30047;DHT22;16878;52.542;13.426;2023-02-28T01:53:24;1.90;99.90
30047;DHT22;16878;52.542;13.426;2023-02-28T01:55:52;1.80;99.90
30047;DHT22;16878;52.542;13.426;2023-02-28T01:58:22;1.70;99.90
30047;DHT22;16878;52.542;13.426;2023-02-28T02:00:48;1.70;99.90
30047;DHT22;16878;52.542;13.426;2023-02-28T02:03:16;1.80;99.90
30047;DHT22;16878;52.542;13.426;2023-02-28T02:05:45;1.70;99.90
30047;DHT22;16878;52.542;13.426;2023-02-28T02:08:21;1.50;99.90
30047;DHT22;16878;52.542;13.426;2023-02-28T02:10:57;1.40;99.90
30047;DHT22;16878;52.542;13.426;2023-02-28T02:22:45;1.20;99.90
30047;DHT22;16878;52.542;13.426;2023-02-28T02:25:26;1.10;99.90
30047;DHT22;16878;52.542;13.426;2023-02-28T02:36:42;1.00;99.90
30047;DHT22;16878;52.542;13.426;2023-02-28T02:42:14;1.00;99.90
30047;DHT22;16878;52.542;13.426;2023-02-28T02:44:48;0.90;99.90
30047;DHT22;16878;52.542;13.426;2023-02-28T02:47:18;0.80;99.90
30047;DHT22;16878;52.542;13.426;2023-02-28T02:49:55;0.80;99.90
30047;DHT22;16878;52.542;13.426;2023-02-28T02:52:25;0.80;99.90
30047;DHT22;16878;52.542;13.426;2023-02-28T02:54:55;0.80;99.90
30047;DHT22;16878;52.542;13.426;2023-02-28T02:57:44;0.80;99.90
30047;DHT22;16878;52.542;13.426;2023-02-28T03:00:11;0.80;99.90
30047;DHT22;16878;52.542;13.426;2023-02-28T03:02:38;0.80;99.90
30047;DHT22;16878;52.542;13.426;2023-02-28T03:05:38;0.70;99.90
30047;DHT22;16878;52.542;13.426;2023-02-28T03:08:05;0.70;99.90
30047;DHT22;16878;52.542;13.426;2023-02-28T03:24:03;0.60;99.90
30047;DHT22;16878;52.542;13.426;2023-02-28T03:26:31;0.50;99.90
30047;DHT22;16878;52.542;13.426;2023-02-28T03:31:47;0.50;99.90
30047;DHT22;16878;52.542;13.426;2023-02-28T03:34:23;0.60;99.90
30047;DHT22;16878;52.542;13.426;2023-02-28T03:36:53;0.50;99.90
30047;DHT22;16878;52.542;13.426;2023-02-28T03:39:24;0.50;99.90
30047;DHT22;16878;52.542;13.426;2023-02-28T03:41:58;0.50;99.90
30047;DHT22;16878;52.542;13.426;2023-02-28T03:44:34;0.50;99.90
30047;DHT22;16878;52.542;13.426;2023-02-28T03:47:46;0.50;99.90
30047;DHT22;16878;52.542;13.426;2023-02-28T03:50:48;0.60;99.90
30047;DHT22;16878;52.542;13.426;2023-02-28T03:53:25;0.60;99.90
30047;DHT22;16878;52.542;13.426;2023-02-28T03:59:15;0.50;99.90
30047;DHT22;16878;52.542;13.426;2023-02-28T04:01:45;0.50;99.90
30047;DHT22;16878;52.542;13.426;2023-02-28T04:04:13;0.50;99.90
30047;DHT22;16878;52.542;13.426;2023-02-28T04:06:40;0.40;99.90
30047;DHT22;16878;52.542;13.426;2023-02-28T04:09:07;0.40;99.90
30047;DHT22;16878;52.542;13.426;2023-02-28T04:11:38;0.40;99.90
30047;DHT22;16878;52.542;13.426;2023-02-28T04:14:05;0.40;99.90
30047;DHT22;16878;52.542;13.426;2023-02-28T04:16:33;0.40;99.90
30047;DHT22;16878;52.542;13.426;2023-02-28T04:19:03;0.40;99.90
30047;DHT22;16878;52.542;13.426;2023-02-28T04:21:36;0.30;99.90
30047;DHT22;16878;52.542;13.426;2023-02-28T04:24:02;0.30;99.90
30047;DHT22;16878;52.542;13.426;2023-02-28T04:26:33;0.30;99.90
30047;DHT22;16878;52.542;13.426;2023-02-28T04:28:59;0.30;99.90
30047;DHT22;16878;52.542;13.426;2023-02-28T04:31:25;0.40;99.90
30047;DHT22;16878;52.542;13.426;2023-02-28T04:33:51;0.40;99.90
30047;DHT22;16878;52.542;13.426;2023-02-28T04:36:17;0.40;99.90
30047;DHT22;16878;52.542;13.426;2023-02-28T04:38:44;0.40;99.90
30047;DHT22;16878;52.542;13.426;2023-02-28T04:41:10;0.30;99.90
30047;DHT22;16878;52.542;13.426;2023-02-28T04:43:36;0.30;99.90
30047;DHT22;16878;52.542;13.426;2023-02-28T04:46:03;0.30;99.90
30047;DHT22;16878;52.542;13.426;2023-02-28T04:48:32;0.30;99.90
30047;DHT22;16878;52.542;13.426;2023-02-28T04:51:03;0.30;99.90
30047;DHT22;16878;52.542;13.426;2023-02-28T04:53:30;0.30;99.90
30047;DHT22;16878;52.542;13.426;2023-02-28T04:55:57;0.20;99.90
30047;DHT22;16878;52.542;13.426;2023-02-28T04:58:22;0.10;99.90
30047;DHT22;16878;52.542;13.426;2023-02-28T05:00:49;0.20;99.90
30047;DHT22;16878;52.542;13.426;2023-02-28T05:03:15;0.10;99.90
30047;DHT22;16878;52.542;13.426;2023-02-28T05:05:41;0.10;99.90
30047;DHT22;16878;52.542;13.426;2023-02-28T05:08:06;0.10;99.90
30047;DHT22;16878;52.542;13.426;2023-02-28T05:10:32;0.00;99.90
30047;DHT22;16878;52.542;13.426;2023-02-28T05:12:58;0.00;99.90
30047;DHT22;16878;52.542;13.426;2023-02-28T05:15:24;0.00;99.90
30047;DHT22;16878;52.542;13.426;2023-02-28T05:17:50;0.00;99.90
30047;DHT22;16878;52.542;13.426;2023-02-28T05:20:15;0.00;99.90
30047;DHT22;16878;52.542;13.426;2023-02-28T05:22:41;-0.10;99.90
30047;DHT22;16878;52.542;13.426;2023-02-28T05:25:12;-0.10;99.90
30047;DHT22;16878;52.542;13.426;2023-02-28T05:27:38;-0.10;99.90
30047;DHT22;16878;52.542;13.426;2023-02-28T05:30:06;-0.10;99.90
30047;DHT22;16878;52.542;13.426;2023-02-28T05:32:32;-0.20;99.90
30047;DHT22;16878;52.542;13.426;2023-02-28T05:34:57;-0.10;99.90
30047;DHT22;16878;52.542;13.426;2023-02-28T05:37:23;-0.20;99.90
30047;DHT22;16878;52.542;13.426;2023-02-28T05:39:49;-0.20;99.90
30047;DHT22;16878;52.542;13.426;2023-02-28T05:42:15;-0.20;99.90
30047;DHT22;16878;52.542;13.426;2023-02-28T05:44:41;-0.20;99.90
30047;DHT22;16878;52.542;13.426;2023-02-28T05:47:07;-0.10;99.90
30047;DHT22;16878;52.542;13.426;2023-02-28T05:49:33;-0.10;99.90
30047;DHT22;16878;52.542;13.426;2023-02-28T05:51:58;-0.10;99.90
30047;DHT22;16878;52.542;13.426;2023-02-28T05:54:24;-0.10;99.90
30047;DHT22;16878;52.542;13.426;2023-02-28T05:56:50;-0.10;99.90
30047;DHT22;16878;52.542;13.426;2023-02-28T05:59:16;-0.10;99.90
30047;DHT22;16878;52.542;13.426;2023-02-28T06:01:43;-0.10;99.90
30047;DHT22;16878;52.542;13.426;2023-02-28T06:04:14;-0.10;99.90
30047;DHT22;16878;52.542;13.426;2023-02-28T06:06:46;0.00;99.90
30047;DHT22;16878;52.542;13.426;2023-02-28T06:09:13;0.00;99.90
30047;DHT22;16878;52.542;13.426;2023-02-28T06:11:39;0.00;99.90
30047;DHT22;16878;52.542;13.426;2023-02-28T06:14:06;0.00;99.90
30047;DHT22;16878;52.542;13.426;2023-02-28T06:16:33;0.00;99.90
30047;DHT22;16878;52.542;13.426;2023-02-28T06:19:01;0.10;99.90
30047;DHT22;16878;52.542;13.426;2023-02-28T06:21:28;0.10;99.90
30047;DHT22;16878;52.542;13.426;2023-02-28T06:23:55;0.10;99.90
30047;DHT22;16878;52.542;13.426;2023-02-28T06:26:20;0.00;99.90
30047;DHT22;16878;52.542;13.426;2023-02-28T06:28:47;0.10;99.90
30047;DHT22;16878;52.542;13.426;2023-02-28T06:31:15;0.10;99.90
30047;DHT22;16878;52.542;13.426;2023-02-28T06:33:45;0.20;99.90
30047;DHT22;16878;52.542;13.426;2023-02-28T06:36:12;0.20;99.90
30047;DHT22;16878;52.542;13.426;2023-02-28T06:38:38;0.30;99.90
30047;DHT22;16878;52.542;13.426;2023-02-28T06:41:05;0.20;99.90
30047;DHT22;16878;52.542;13.426;2023-02-28T06:43:34;0.30;99.90
30047;DHT22;16878;52.542;13.426;2023-02-28T06:46:02;0.20;99.90
30047;DHT22;16878;52.542;13.426;2023-02-28T06:48:28;0.30;99.90
30047;DHT22;16878;52.542;13.426;2023-02-28T06:51:08;0.30;99.90
30047;DHT22;16878;52.542;13.426;2023-02-28T06:53:35;0.40;99.90
30047;DHT22;16878;52.542;13.426;2023-02-28T06:56:09;0.40;99.90
30047;DHT22;16878;52.542;13.426;2023-02-28T06:58:35;0.40;99.90
30047;DHT22;16878;52.542;13.426;2023-02-28T07:01:01;0.50;99.90
30047;DHT22;16878;52.542;13.426;2023-02-28T07:03:27;0.60;99.90
30047;DHT22;16878;52.542;13.426;2023-02-28T07:05:53;0.60;99.90
30047;DHT22;16878;52.542;13.426;2023-02-28T07:08:18;0.70;99.90
30047;DHT22;16878;52.542;13.426;2023-02-28T07:10:44;0.80;99.90
30047;DHT22;16878;52.542;13.426;2023-02-28T07:13:11;0.80;99.90
30047;DHT22;16878;52.542;13.426;2023-02-28T07:15:37;0.80;99.90
30047;DHT22;16878;52.542;13.426;2023-02-28T07:18:03;0.80;99.90
30047;DHT22;16878;52.542;13.426;2023-02-28T07:20:30;0.90;99.90
30047;DHT22;16878;52.542;13.426;2023-02-28T07:22:55;0.90;99.90
30047;DHT22;16878;52.542;13.426;2023-02-28T07:25:26;1.00;99.90
30047;DHT22;16878;52.542;13.426;2023-02-28T07:27:53;1.00;99.90
30047;DHT22;16878;52.542;13.426;2023-02-28T07:30:19;1.10;99.90
30047;DHT22;16878;52.542;13.426;2023-02-28T07:32:45;1.10;99.90
30047;DHT22;16878;52.542;13.426;2023-02-28T07:35:11;1.20;99.90
30047;DHT22;16878;52.542;13.426;2023-02-28T07:37:39;1.30;99.90
30047;DHT22;16878;52.542;13.426;2023-02-28T07:40:10;1.30;99.90
30047;DHT22;16878;52.542;13.426;2023-02-28T07:42:40;1.40;99.90
30047;DHT22;16878;52.542;13.426;2023-02-28T07:45:08;1.50;99.90
30047;DHT22;16878;52.542;13.426;2023-02-28T07:47:34;1.60;99.90
30047;DHT22;16878;52.542;13.426;2023-02-28T07:50:00;1.70;99.90
30047;DHT22;16878;52.542;13.426;2023-02-28T07:52:25;1.70;99.90
30047;DHT22;16878;52.542;13.426;2023-02-28T07:54:52;1.80;99.90
30047;DHT22;16878;52.542;13.426;2023-02-28T07:57:18;1.90;99.90
30047;DHT22;16878;52.542;13.426;2023-02-28T07:59:44;2.00;99.90
30047;DHT22;16878;52.542;13.426;2023-02-28T08:02:14;2.00;99.90
30047;DHT22;16878;52.542;13.426;2023-02-28T08:04:40;2.10;99.90
30047;DHT22;16878;52.542;13.426;2023-02-28T08:07:06;2.10;99.90
30047;DHT22;16878;52.542;13.426;2023-02-28T08:09:39;2.20;99.90
30047;DHT22;16878;52.542;13.426;2023-02-28T08:12:06;2.30;99.90
30047;DHT22;16878;52.542;13.426;2023-02-28T08:14:33;2.30;99.90
30047;DHT22;16878;52.542;13.426;2023-02-28T08:16:58;2.40;99.90
30047;DHT22;16878;52.542;13.426;2023-02-28T08:19:24;2.50;99.90
30047;DHT22;16878;52.542;13.426;2023-02-28T08:21:50;2.50;99.90
30047;DHT22;16878;52.542;13.426;2023-02-28T08:24:16;2.50;99.90
30047;DHT22;16878;52.542;13.426;2023-02-28T08:26:41;2.60;99.20
30047;DHT22;16878;52.542;13.426;2023-02-28T08:29:07;2.80;97.60
30047;DHT22;16878;52.542;13.426;2023-02-28T08:31:33;2.80;97.20
30047;DHT22;16878;52.542;13.426;2023-02-28T08:34:10;2.80;96.50
30047;DHT22;16878;52.542;13.426;2023-02-28T08:36:37;2.80;96.00
30047;DHT22;16878;52.542;13.426;2023-02-28T08:39:03;2.90;94.40
30047;DHT22;16878;52.542;13.426;2023-02-28T08:41:32;3.00;93.70
30047;DHT22;16878;52.542;13.426;2023-02-28T08:43:58;3.00;93.20
30047;DHT22;16878;52.542;13.426;2023-02-28T08:46:24;3.10;91.20
30047;DHT22;16878;52.542;13.426;2023-02-28T08:48:55;3.10;91.10
30047;DHT22;16878;52.542;13.426;2023-02-28T08:51:22;3.30;88.30
30047;DHT22;16878;52.542;13.426;2023-02-28T08:54:00;3.40;85.60
30047;DHT22;16878;52.542;13.426;2023-02-28T08:56:27;3.40;85.30
30047;DHT22;16878;52.542;13.426;2023-02-28T08:58:55;3.50;85.20
30047;DHT22;16878;52.542;13.426;2023-02-28T09:01:26;3.50;83.90
30047;DHT22;16878;52.542;13.426;2023-02-28T09:03:53;3.60;84.80
30047;DHT22;16878;52.542;13.426;2023-02-28T09:06:21;3.70;82.90
30047;DHT22;16878;52.542;13.426;2023-02-28T09:08:47;3.70;84.00
30047;DHT22;16878;52.542;13.426;2023-02-28T09:11:13;3.70;81.70
30047;DHT22;16878;52.542;13.426;2023-02-28T09:13:39;3.80;80.50
30047;DHT22;16878;52.542;13.426;2023-02-28T09:16:07;3.90;78.30
30047;DHT22;16878;52.542;13.426;2023-02-28T09:18:37;4.00;78.60
30047;DHT22;16878;52.542;13.426;2023-02-28T09:21:13;4.00;78.30
30047;DHT22;16878;52.542;13.426;2023-02-28T09:23:41;4.00;78.40
30047;DHT22;16878;52.542;13.426;2023-02-28T09:26:07;4.00;77.70
30047;DHT22;16878;52.542;13.426;2023-02-28T09:28:33;4.00;76.90
30047;DHT22;16878;52.542;13.426;2023-02-28T09:30:59;4.00;77.00
30047;DHT22;16878;52.542;13.426;2023-02-28T09:33:26;4.10;76.70
30047;DHT22;16878;52.542;13.426;2023-02-28T09:35:59;4.20;76.70
30047;DHT22;16878;52.542;13.426;2023-02-28T09:38:26;4.20;76.20
30047;DHT22;16878;52.542;13.426;2023-02-28T09:40:58;4.10;75.90
30047;DHT22;16878;52.542;13.426;2023-02-28T09:43:35;4.10;76.40
30047;DHT22;16878;52.542;13.426;2023-02-28T09:48:41;4.40;73.60
30047;DHT22;16878;52.542;13.426;2023-02-28T09:52:01;4.30;73.50
30047;DHT22;16878;52.542;13.426;2023-02-28T09:54:02;4.30;74.10
30047;DHT22;16878;52.542;13.426;2023-02-28T09:56:36;4.30;73.10
30047;DHT22;16878;52.542;13.426;2023-02-28T10:02:02;4.50;73.30
30047;DHT22;16878;52.542;13.426;2023-02-28T10:04:45;4.50;73.00
30047;DHT22;16878;52.542;13.426;2023-02-28T10:10:15;4.50;72.70
30047;DHT22;16878;52.542;13.426;2023-02-28T10:12:45;4.50;72.70
30047;DHT22;16878;52.542;13.426;2023-02-28T10:15:16;4.60;73.40
30047;DHT22;16878;52.542;13.426;2023-02-28T10:17:45;4.60;73.00
30047;DHT22;16878;52.542;13.426;2023-02-28T10:20:19;4.60;73.60
30047;DHT22;16878;52.542;13.426;2023-02-28T10:23:16;4.70;73.60
30047;DHT22;16878;52.542;13.426;2023-02-28T10:25:50;4.80;72.70
30047;DHT22;16878;52.542;13.426;2023-02-28T10:28:18;4.80;72.10
30047;DHT22;16878;52.542;13.426;2023-02-28T10:30:46;4.80;71.60
30047;DHT22;16878;52.542;13.426;2023-02-28T10:33:34;4.70;71.50
30047;DHT22;16878;52.542;13.426;2023-02-28T10:36:00;4.70;71.70
30047;DHT22;16878;52.542;13.426;2023-02-28T10:38:35;4.70;71.90
30047;DHT22;16878;52.542;13.426;2023-02-28T10:41:17;4.80;71.80
30047;DHT22;16878;52.542;13.426;2023-02-28T10:43:52;4.80;71.50
30047;DHT22;16878;52.542;13.426;2023-02-28T10:46:19;4.80;70.80
30047;DHT22;16878;52.542;13.426;2023-02-28T10:49:21;4.80;70.90
30047;DHT22;16878;52.542;13.426;2023-02-28T10:51:51;4.90;70.70
30047;DHT22;16878;52.542;13.426;2023-02-28T10:54:30;4.90;70.60
30047;DHT22;16878;52.542;13.426;2023-02-28T10:57:20;4.90;70.30
30047;DHT22;16878;52.542;13.426;2023-02-28T11:00:05;4.90;70.30
30047;DHT22;16878;52.542;13.426;2023-02-28T11:02:34;5.00;70.40
30047;DHT22;16878;52.542;13.426;2023-02-28T11:05:00;5.10;70.00
30047;DHT22;16878;52.542;13.426;2023-02-28T11:07:26;5.10;69.50
30047;DHT22;16878;52.542;13.426;2023-02-28T11:09:55;5.10;70.10
30047;DHT22;16878;52.542;13.426;2023-02-28T11:12:23;5.10;69.60
30047;DHT22;16878;52.542;13.426;2023-02-28T11:14:57;5.10;70.70
30047;DHT22;16878;52.542;13.426;2023-02-28T11:17:28;5.10;70.10
30047;DHT22;16878;52.542;13.426;2023-02-28T11:20:04;5.10;70.40
30047;DHT22;16878;52.542;13.426;2023-02-28T11:22:36;5.10;69.50
30047;DHT22;16878;52.542;13.426;2023-02-28T11:25:09;5.10;69.30
30047;DHT22;16878;52.542;13.426;2023-02-28T11:27:51;5.10;70.80
30047;DHT22;16878;52.542;13.426;2023-02-28T11:30:30;5.20;70.70
30047;DHT22;16878;52.542;13.426;2023-02-28T11:32:56;5.10;70.70
30047;DHT22;16878;52.542;13.426;2023-02-28T11:35:31;5.20;70.70
30047;DHT22;16878;52.542;13.426;2023-02-28T11:38:01;5.20;69.80
30047;DHT22;16878;52.542;13.426;2023-02-28T11:51:21;5.30;70.70
30047;DHT22;16878;52.542;13.426;2023-02-28T11:57:09;5.40;68.50
30047;DHT22;16878;52.542;13.426;2023-02-28T12:13:34;5.20;68.70
30047;DHT22;16878;52.542;13.426;2023-02-28T12:22:22;5.20;69.60
30047;DHT22;16878;52.542;13.426;2023-02-28T12:27:41;5.30;68.20
30047;DHT22;16878;52.542;13.426;2023-02-28T12:31:23;5.20;69.20
30047;DHT22;16878;52.542;13.426;2023-02-28T12:33:34;5.30;68.80
30047;DHT22;16878;52.542;13.426;2023-02-28T12:36:09;5.30;68.90
30047;DHT22;16878;52.542;13.426;2023-02-28T12:38:42;5.40;69.80
30047;DHT22;16878;52.542;13.426;2023-02-28T12:41:13;5.40;68.30
30047;DHT22;16878;52.542;13.426;2023-02-28T12:44:07;5.40;68.20
30047;DHT22;16878;52.542;13.426;2023-02-28T12:46:41;5.40;67.90
30047;DHT22;16878;52.542;13.426;2023-02-28T12:49:25;5.40;68.10
30047;DHT22;16878;52.542;13.426;2023-02-28T12:51:53;5.40;68.00
30047;DHT22;16878;52.542;13.426;2023-02-28T12:54:21;5.40;68.20
30047;DHT22;16878;52.542;13.426;2023-02-28T12:57:13;5.60;67.90
30047;DHT22;16878;52.542;13.426;2023-02-28T12:59:48;5.60;67.90
30047;DHT22;16878;52.542;13.426;2023-02-28T13:10:12;5.70;67.80
30047;DHT22;16878;52.542;13.426;2023-02-28T13:12:51;5.70;67.10
30047;DHT22;16878;52.542;13.426;2023-02-28T13:15:24;5.70;66.90
30047;DHT22;16878;52.542;13.426;2023-02-28T13:17:56;5.80;67.80
30047;DHT22;16878;52.542;13.426;2023-02-28T13:20:29;5.90;67.60
30047;DHT22;16878;52.542;13.426;2023-02-28T13:22:57;5.70;68.40
30047;DHT22;16878;52.542;13.426;2023-02-28T13:27:50;5.70;67.60
30047;DHT22;16878;52.542;13.426;2023-02-28T13:33:29;5.90;67.50
30047;DHT22;16878;52.542;13.426;2023-02-28T13:38:38;5.90;66.40
30047;DHT22;16878;52.542;13.426;2023-02-28T13:44:02;5.80;65.10
30047;DHT22;16878;52.542;13.426;2023-02-28T13:46:28;5.70;66.40
30047;DHT22;16878;52.542;13.426;2023-02-28T13:48:54;5.60;66.70
30047;DHT22;16878;52.542;13.426;2023-02-28T13:51:47;5.60;67.10
30047;DHT22;16878;52.542;13.426;2023-02-28T13:54:52;5.60;67.60
30047;DHT22;16878;52.542;13.426;2023-02-28T14:03:38;5.80;66.70
30047;DHT22;16878;52.542;13.426;2023-02-28T14:06:50;5.70;66.70
30047;DHT22;16878;52.542;13.426;2023-02-28T14:09:30;5.70;66.90
30047;DHT22;16878;52.542;13.426;2023-02-28T14:15:03;5.60;66.50
30047;DHT22;16878;52.542;13.426;2023-02-28T14:17:29;5.60;66.10
30047;DHT22;16878;52.542;13.426;2023-02-28T14:19:55;5.60;65.60
30047;DHT22;16878;52.542;13.426;2023-02-28T14:22:55;5.70;65.60
30047;DHT22;16878;52.542;13.426;2023-02-28T14:25:48;5.80;65.20
30047;DHT22;16878;52.542;13.426;2023-02-28T14:28:26;5.70;64.70
30047;DHT22;16878;52.542;13.426;2023-02-28T14:31:09;5.80;65.50
30047;DHT22;16878;52.542;13.426;2023-02-28T14:36:36;5.70;66.30
30047;DHT22;16878;52.542;13.426;2023-02-28T14:39:10;5.70;67.00
30047;DHT22;16878;52.542;13.426;2023-02-28T14:41:38;5.70;66.30
30047;DHT22;16878;52.542;13.426;2023-02-28T14:46:41;5.70;67.10
30047;DHT22;16878;52.542;13.426;2023-02-28T14:49:20;5.60;67.00
30047;DHT22;16878;52.542;13.426;2023-02-28T14:52:01;5.60;68.30
30047;DHT22;16878;52.542;13.426;2023-02-28T14:54:27;5.50;69.80
30047;DHT22;16878;52.542;13.426;2023-02-28T14:56:54;5.40;70.60
30047;DHT22;16878;52.542;13.426;2023-02-28T14:59:29;5.40;70.90
30047;DHT22;16878;52.542;13.426;2023-02-28T15:02:18;5.40;70.80
30047;DHT22;16878;52.542;13.426;2023-02-28T15:05:37;5.50;70.90
30047;DHT22;16878;52.542;13.426;2023-02-28T15:07:39;5.50;68.20
30047;DHT22;16878;52.542;13.426;2023-02-28T15:10:25;5.30;68.60
30047;DHT22;16878;52.542;13.426;2023-02-28T15:12:55;5.30;69.40
30047;DHT22;16878;52.542;13.426;2023-02-28T15:15:33;5.30;69.50
30047;DHT22;16878;52.542;13.426;2023-02-28T15:18:03;5.20;69.30
30047;DHT22;16878;52.542;13.426;2023-02-28T15:20:31;5.30;68.20
30047;DHT22;16878;52.542;13.426;2023-02-28T15:22:58;5.20;68.50
30047;DHT22;16878;52.542;13.426;2023-02-28T15:25:24;5.20;68.50
30047;DHT22;16878;52.542;13.426;2023-02-28T15:27:53;5.10;69.50
30047;DHT22;16878;52.542;13.426;2023-02-28T15:30:26;5.00;70.30
30047;DHT22;16878;52.542;13.426;2023-02-28T15:35:33;5.00;71.10
30047;DHT22;16878;52.542;13.426;2023-02-28T15:38:22;5.00;70.60
30047;DHT22;16878;52.542;13.426;2023-02-28T15:40:54;5.10;70.90
30047;DHT22;16878;52.542;13.426;2023-02-28T15:46:03;4.90;71.80
30047;DHT22;16878;52.542;13.426;2023-02-28T15:51:02;4.90;73.10
30047;DHT22;16878;52.542;13.426;2023-02-28T15:56:25;4.60;74.30
30047;DHT22;16878;52.542;13.426;2023-02-28T15:59:27;4.50;75.30
30047;DHT22;16878;52.542;13.426;2023-02-28T16:02:32;4.60;75.70
30047;DHT22;16878;52.542;13.426;2023-02-28T16:07:35;4.80;75.20
30047;DHT22;16878;52.542;13.426;2023-02-28T16:10:01;4.80;75.10
30047;DHT22;16878;52.542;13.426;2023-02-28T16:12:29;4.80;75.70
30047;DHT22;16878;52.542;13.426;2023-02-28T16:14:57;4.70;75.80
30047;DHT22;16878;52.542;13.426;2023-02-28T16:17:29;4.70;75.50
30047;DHT22;16878;52.542;13.426;2023-02-28T16:19:57;4.60;75.70
30047;DHT22;16878;52.542;13.426;2023-02-28T16:22:23;4.70;75.60
30047;DHT22;16878;52.542;13.426;2023-02-28T16:24:49;4.60;75.80
30047;DHT22;16878;52.542;13.426;2023-02-28T16:27:21;4.60;75.90
30047;DHT22;16878;52.542;13.426;2023-02-28T16:29:50;4.60;76.50
30047;DHT22;16878;52.542;13.426;2023-02-28T16:32:16;4.60;75.40
30047;DHT22;16878;52.542;13.426;2023-02-28T16:34:43;4.60;76.00
30047;DHT22;16878;52.542;13.426;2023-02-28T16:37:17;4.50;75.30
30047;DHT22;16878;52.542;13.426;2023-02-28T16:39:46;4.40;75.10
30047;DHT22;16878;52.542;13.426;2023-02-28T16:42:23;4.30;75.40
30047;DHT22;16878;52.542;13.426;2023-02-28T16:44:51;4.20;75.30
30047;DHT22;16878;52.542;13.426;2023-02-28T16:47:17;4.10;76.00
30047;DHT22;16878;52.542;13.426;2023-02-28T16:49:43;4.20;76.10
30047;DHT22;16878;52.542;13.426;2023-02-28T16:52:10;4.10;76.30
30047;DHT22;16878;52.542;13.426;2023-02-28T16:54:38;3.90;77.20
30047;DHT22;16878;52.542;13.426;2023-02-28T16:57:05;3.80;77.60
30047;DHT22;16878;52.542;13.426;2023-02-28T16:59:31;3.80;77.90
30047;DHT22;16878;52.542;13.426;2023-02-28T17:01:57;3.70;78.40
30047;DHT22;16878;52.542;13.426;2023-02-28T17:04:25;3.60;78.80
30047;DHT22;16878;52.542;13.426;2023-02-28T17:06:53;3.80;78.30
30047;DHT22;16878;52.542;13.426;2023-02-28T17:09:22;3.70;78.40
30047;DHT22;16878;52.542;13.426;2023-02-28T17:11:48;3.60;78.90
30047;DHT22;16878;52.542;13.426;2023-02-28T17:14:15;3.50;79.80
30047;DHT22;16878;52.542;13.426;2023-02-28T17:16:42;3.50;79.90
30047;DHT22;16878;52.542;13.426;2023-02-28T17:19:16;3.50;79.50
30047;DHT22;16878;52.542;13.426;2023-02-28T17:21:42;3.50;80.10
30047;DHT22;16878;52.542;13.426;2023-02-28T17:24:09;3.40;80.60
30047;DHT22;16878;52.542;13.426;2023-02-28T17:26:41;3.40;80.40
30047;DHT22;16878;52.542;13.426;2023-02-28T17:29:17;3.30;80.90
30047;DHT22;16878;52.542;13.426;2023-02-28T17:31:43;3.30;81.10
30047;DHT22;16878;52.542;13.426;2023-02-28T17:34:09;3.20;81.40
30047;DHT22;16878;52.542;13.426;2023-02-28T17:36:35;3.20;81.70
30047;DHT22;16878;52.542;13.426;2023-02-28T17:39:03;3.20;81.70
30047;DHT22;16878;52.542;13.426;2023-02-28T17:41:31;3.20;82.40
30047;DHT22;16878;52.542;13.426;2023-02-28T17:43:57;3.20;82.70
30047;DHT22;16878;52.542;13.426;2023-02-28T17:46:24;3.10;83.50
30047;DHT22;16878;52.542;13.426;2023-02-28T17:48:52;3.10;83.80
30047;DHT22;16878;52.542;13.426;2023-02-28T17:51:21;3.10;83.80
30047;DHT22;16878;52.542;13.426;2023-02-28T17:53:47;3.00;84.10
30047;DHT22;16878;52.542;13.426;2023-02-28T17:56:20;3.10;84.40
30047;DHT22;16878;52.542;13.426;2023-02-28T17:58:46;3.10;84.10
30047;DHT22;16878;52.542;13.426;2023-02-28T18:01:12;3.10;84.10
30047;DHT22;16878;52.542;13.426;2023-02-28T18:03:39;3.00;84.10